Terminal Aerodrome Forecast
Issued by NWS

Home | Current Version | Previous Version | Graphics & Text | Print | Product List | Glossary On
Versions: 1 2 3 4 5 6 7 8 9 10 11 12 13 14 15 16 17 18 19 20
000
FTUS43 KGRB 152300
TAFAUW
TAF
KAUW 152331Z 1600/1624 27006KT P6SM SCT050
     FM160200 VRB03KT P6SM BKN200
     FM160600 13006KT P6SM BKN080
     FM161000 12010G16KT P6SM -SN SCT025 OVC040
     FM161300 12013G23KT 1 1/2SM -SN SCT006 OVC015
      TEMPO 1613/1617 3/4SM -SN BKN006
     FM161800 12012G21KT 4SM -RASN SCT012 BKN025=

USA.gov is the U.S. government's official web portal to all federal, state and local government web resources and services.